sensor_id;sensor_type;location;lat;lon;timestamp;P1;durP1;ratioP1;P2;durP2;ratioP2
32906;SDS011;19259;51.590;5.320;2022-09-09T00:02:27;9.03;;;2.20;;
32906;SDS011;19259;51.590;5.320;2022-09-09T00:07:47;5.40;;;2.08;;
32906;SDS011;19259;51.590;5.320;2022-09-09T00:10:17;4.58;;;1.60;;
32906;SDS011;19259;51.590;5.320;2022-09-09T00:13:10;4.30;;;2.27;;
32906;SDS011;19259;51.590;5.320;2022-09-09T00:15:59;9.08;;;1.82;;
32906;SDS011;19259;51.590;5.320;2022-09-09T00:21:13;7.08;;;2.22;;
32906;SDS011;19259;51.590;5.320;2022-09-09T00:23:49;3.80;;;1.82;;
32906;SDS011;19259;51.590;5.320;2022-09-09T00:29:13;7.37;;;2.33;;
32906;SDS011;19259;51.590;5.320;2022-09-09T00:31:40;3.72;;;1.90;;
32906;SDS011;19259;51.590;5.320;2022-09-09T00:36:50;2.98;;;1.70;;
32906;SDS011;19259;51.590;5.320;2022-09-09T00:39:27;6.08;;;1.57;;
32906;SDS011;19259;51.590;5.320;2022-09-09T00:50:25;6.43;;;1.90;;
32906;SDS011;19259;51.590;5.320;2022-09-09T00:53:11;3.40;;;1.80;;
32906;SDS011;19259;51.590;5.320;2022-09-09T00:58:32;4.78;;;2.17;;
32906;SDS011;19259;51.590;5.320;2022-09-09T01:01:08;6.60;;;1.80;;
32906;SDS011;19259;51.590;5.320;2022-09-09T01:03:50;5.87;;;2.20;;
32906;SDS011;19259;51.590;5.320;2022-09-09T01:06:29;7.97;;;1.98;;
32906;SDS011;19259;51.590;5.320;2022-09-09T01:09:04;3.67;;;1.95;;
32906;SDS011;19259;51.590;5.320;2022-09-09T01:17:31;6.70;;;2.33;;
32906;SDS011;19259;51.590;5.320;2022-09-09T01:19:54;3.75;;;2.08;;
32906;SDS011;19259;51.590;5.320;2022-09-09T01:27:56;3.77;;;2.05;;
32906;SDS011;19259;51.590;5.320;2022-09-09T01:30:26;6.78;;;1.87;;
32906;SDS011;19259;51.590;5.320;2022-09-09T01:32:55;3.60;;;2.10;;
32906;SDS011;19259;51.590;5.320;2022-09-09T01:38:12;5.53;;;2.12;;
32906;SDS011;19259;51.590;5.320;2022-09-09T01:40:41;6.40;;;1.92;;
32906;SDS011;19259;51.590;5.320;2022-09-09T01:43:09;6.30;;;2.10;;
32906;SDS011;19259;51.590;5.320;2022-09-09T01:45:37;10.35;;;2.33;;
32906;SDS011;19259;51.590;5.320;2022-09-09T01:48:06;2.87;;;1.82;;
32906;SDS011;19259;51.590;5.320;2022-09-09T01:50:33;6.92;;;2.00;;
32906;SDS011;19259;51.590;5.320;2022-09-09T01:53:01;5.33;;;2.87;;
32906;SDS011;19259;51.590;5.320;2022-09-09T01:55:31;5.97;;;2.12;;
32906;SDS011;19259;51.590;5.320;2022-09-09T01:58:04;8.70;;;2.08;;
32906;SDS011;19259;51.590;5.320;2022-09-09T02:00:34;6.87;;;2.30;;
32906;SDS011;19259;51.590;5.320;2022-09-09T02:03:20;4.78;;;2.33;;
32906;SDS011;19259;51.590;5.320;2022-09-09T02:08:33;6.58;;;2.20;;
32906;SDS011;19259;51.590;5.320;2022-09-09T02:11:06;9.40;;;4.53;;
32906;SDS011;19259;51.590;5.320;2022-09-09T02:13:45;4.15;;;2.30;;
32906;SDS011;19259;51.590;5.320;2022-09-09T02:19:06;6.00;;;2.00;;
32906;SDS011;19259;51.590;5.320;2022-09-09T02:21:37;5.45;;;2.08;;
32906;SDS011;19259;51.590;5.320;2022-09-09T02:24:08;4.35;;;2.42;;
32906;SDS011;19259;51.590;5.320;2022-09-09T02:26:39;5.10;;;2.02;;
32906;SDS011;19259;51.590;5.320;2022-09-09T02:29:13;6.15;;;2.27;;
32906;SDS011;19259;51.590;5.320;2022-09-09T02:31:43;5.85;;;2.08;;
32906;SDS011;19259;51.590;5.320;2022-09-09T02:34:15;4.87;;;2.08;;
32906;SDS011;19259;51.590;5.320;2022-09-09T02:36:45;5.75;;;2.20;;
32906;SDS011;19259;51.590;5.320;2022-09-09T02:39:14;5.60;;;2.45;;
32906;SDS011;19259;51.590;5.320;2022-09-09T02:41:42;4.45;;;2.33;;
32906;SDS011;19259;51.590;5.320;2022-09-09T02:44:16;4.80;;;2.33;;
32906;SDS011;19259;51.590;5.320;2022-09-09T02:49:51;6.10;;;2.27;;
32906;SDS011;19259;51.590;5.320;2022-09-09T02:55:41;8.38;;;2.60;;
32906;SDS011;19259;51.590;5.320;2022-09-09T02:58:15;3.98;;;1.75;;
32906;SDS011;19259;51.590;5.320;2022-09-09T03:00:48;4.95;;;2.33;;
32906;SDS011;19259;51.590;5.320;2022-09-09T03:03:17;13.30;;;3.12;;
32906;SDS011;19259;51.590;5.320;2022-09-09T03:05:46;9.80;;;2.92;;
32906;SDS011;19259;51.590;5.320;2022-09-09T03:08:13;8.25;;;2.70;;
32906;SDS011;19259;51.590;5.320;2022-09-09T03:10:41;5.25;;;2.45;;
32906;SDS011;19259;51.590;5.320;2022-09-09T03:13:09;6.00;;;2.00;;
32906;SDS011;19259;51.590;5.320;2022-09-09T03:15:38;11.08;;;2.35;;
32906;SDS011;19259;51.590;5.320;2022-09-09T03:18:06;4.67;;;2.20;;
32906;SDS011;19259;51.590;5.320;2022-09-09T03:20:34;5.95;;;2.10;;
32906;SDS011;19259;51.590;5.320;2022-09-09T03:23:01;4.62;;;2.02;;
32906;SDS011;19259;51.590;5.320;2022-09-09T03:25:29;7.30;;;2.20;;
32906;SDS011;19259;51.590;5.320;2022-09-09T03:28:02;6.70;;;2.37;;
32906;SDS011;19259;51.590;5.320;2022-09-09T03:30:27;5.80;;;2.33;;
32906;SDS011;19259;51.590;5.320;2022-09-09T03:32:55;8.35;;;2.50;;
32906;SDS011;19259;51.590;5.320;2022-09-09T03:35:23;5.35;;;2.40;;
32906;SDS011;19259;51.590;5.320;2022-09-09T03:37:50;5.40;;;2.58;;
32906;SDS011;19259;51.590;5.320;2022-09-09T03:40:18;7.20;;;2.75;;
32906;SDS011;19259;51.590;5.320;2022-09-09T03:42:46;7.95;;;2.70;;
32906;SDS011;19259;51.590;5.320;2022-09-09T03:45:14;8.63;;;2.55;;
32906;SDS011;19259;51.590;5.320;2022-09-09T03:47:42;8.58;;;2.60;;
32906;SDS011;19259;51.590;5.320;2022-09-09T03:50:10;9.10;;;2.90;;
32906;SDS011;19259;51.590;5.320;2022-09-09T03:52:40;8.15;;;2.70;;
32906;SDS011;19259;51.590;5.320;2022-09-09T03:55:08;8.00;;;3.60;;
32906;SDS011;19259;51.590;5.320;2022-09-09T03:57:36;6.78;;;3.27;;
32906;SDS011;19259;51.590;5.320;2022-09-09T04:00:04;9.20;;;3.47;;
32906;SDS011;19259;51.590;5.320;2022-09-09T04:02:33;10.63;;;3.20;;
32906;SDS011;19259;51.590;5.320;2022-09-09T04:05:00;10.25;;;2.92;;
32906;SDS011;19259;51.590;5.320;2022-09-09T04:07:28;7.17;;;3.05;;
32906;SDS011;19259;51.590;5.320;2022-09-09T04:09:55;6.47;;;2.98;;
32906;SDS011;19259;51.590;5.320;2022-09-09T04:12:23;5.62;;;2.70;;
32906;SDS011;19259;51.590;5.320;2022-09-09T04:14:50;8.70;;;3.08;;
32906;SDS011;19259;51.590;5.320;2022-09-09T04:17:18;8.43;;;3.05;;
32906;SDS011;19259;51.590;5.320;2022-09-09T04:19:45;7.97;;;2.65;;
32906;SDS011;19259;51.590;5.320;2022-09-09T04:22:15;7.10;;;2.35;;
32906;SDS011;19259;51.590;5.320;2022-09-09T04:24:43;7.35;;;2.75;;
32906;SDS011;19259;51.590;5.320;2022-09-09T04:27:10;8.18;;;2.52;;
32906;SDS011;19259;51.590;5.320;2022-09-09T04:29:38;7.20;;;3.05;;
32906;SDS011;19259;51.590;5.320;2022-09-09T04:32:06;7.35;;;2.50;;
32906;SDS011;19259;51.590;5.320;2022-09-09T04:34:33;8.10;;;2.75;;
32906;SDS011;19259;51.590;5.320;2022-09-09T04:37:00;11.88;;;4.67;;
32906;SDS011;19259;51.590;5.320;2022-09-09T04:39:28;9.75;;;2.55;;
32906;SDS011;19259;51.590;5.320;2022-09-09T04:41:56;5.80;;;2.40;;
32906;SDS011;19259;51.590;5.320;2022-09-09T04:44:23;9.83;;;2.50;;
32906;SDS011;19259;51.590;5.320;2022-09-09T04:46:51;8.80;;;3.08;;
32906;SDS011;19259;51.590;5.320;2022-09-09T04:49:18;7.45;;;2.60;;
32906;SDS011;19259;51.590;5.320;2022-09-09T04:51:46;6.47;;;2.25;;
32906;SDS011;19259;51.590;5.320;2022-09-09T04:54:18;10.25;;;2.80;;
32906;SDS011;19259;51.590;5.320;2022-09-09T04:56:46;7.78;;;2.70;;
32906;SDS011;19259;51.590;5.320;2022-09-09T04:59:16;11.18;;;3.02;;
32906;SDS011;19259;51.590;5.320;2022-09-09T05:01:42;13.05;;;3.52;;
32906;SDS011;19259;51.590;5.320;2022-09-09T05:04:10;9.00;;;3.10;;
32906;SDS011;19259;51.590;5.320;2022-09-09T05:06:41;11.60;;;3.02;;
32906;SDS011;19259;51.590;5.320;2022-09-09T05:09:08;8.55;;;2.98;;
32906;SDS011;19259;51.590;5.320;2022-09-09T05:11:36;6.75;;;3.50;;
32906;SDS011;19259;51.590;5.320;2022-09-09T05:14:03;9.38;;;2.37;;
32906;SDS011;19259;51.590;5.320;2022-09-09T05:16:31;4.53;;;2.45;;
32906;SDS011;19259;51.590;5.320;2022-09-09T05:18:59;10.98;;;3.37;;
32906;SDS011;19259;51.590;5.320;2022-09-09T05:21:28;10.38;;;3.25;;
32906;SDS011;19259;51.590;5.320;2022-09-09T05:23:57;6.42;;;2.40;;
32906;SDS011;19259;51.590;5.320;2022-09-09T05:26:26;9.53;;;2.72;;
32906;SDS011;19259;51.590;5.320;2022-09-09T05:28:55;10.93;;;2.72;;
32906;SDS011;19259;51.590;5.320;2022-09-09T05:31:22;10.82;;;2.42;;
32906;SDS011;19259;51.590;5.320;2022-09-09T05:33:52;8.23;;;2.85;;
32906;SDS011;19259;51.590;5.320;2022-09-09T05:36:20;8.90;;;2.40;;
32906;SDS011;19259;51.590;5.320;2022-09-09T05:38:49;7.80;;;2.60;;
32906;SDS011;19259;51.590;5.320;2022-09-09T05:41:19;12.70;;;2.67;;
32906;SDS011;19259;51.590;5.320;2022-09-09T05:43:51;10.00;;;2.58;;
32906;SDS011;19259;51.590;5.320;2022-09-09T05:46:20;5.75;;;2.27;;
32906;SDS011;19259;51.590;5.320;2022-09-09T05:48:49;8.80;;;2.45;;
32906;SDS011;19259;51.590;5.320;2022-09-09T05:51:18;7.92;;;2.42;;
32906;SDS011;19259;51.590;5.320;2022-09-09T05:53:48;7.15;;;2.65;;
32906;SDS011;19259;51.590;5.320;2022-09-09T05:56:18;9.88;;;3.20;;
32906;SDS011;19259;51.590;5.320;2022-09-09T05:58:49;9.60;;;2.83;;
32906;SDS011;19259;51.590;5.320;2022-09-09T06:01:19;9.23;;;2.45;;
32906;SDS011;19259;51.590;5.320;2022-09-09T06:03:52;9.88;;;2.25;;
32906;SDS011;19259;51.590;5.320;2022-09-09T06:06:30;6.70;;;2.52;;
32906;SDS011;19259;51.590;5.320;2022-09-09T06:09:02;10.25;;;2.50;;
32906;SDS011;19259;51.590;5.320;2022-09-09T06:11:36;9.45;;;2.70;;
32906;SDS011;19259;51.590;5.320;2022-09-09T06:14:05;6.95;;;2.47;;
32906;SDS011;19259;51.590;5.320;2022-09-09T06:16:33;9.10;;;2.47;;
32906;SDS011;19259;51.590;5.320;2022-09-09T06:19:03;8.43;;;2.40;;
32906;SDS011;19259;51.590;5.320;2022-09-09T06:21:33;10.88;;;2.60;;
32906;SDS011;19259;51.590;5.320;2022-09-09T06:24:05;10.55;;;2.80;;
32906;SDS011;19259;51.590;5.320;2022-09-09T06:26:35;10.25;;;2.65;;
32906;SDS011;19259;51.590;5.320;2022-09-09T06:29:06;12.90;;;2.55;;
32906;SDS011;19259;51.590;5.320;2022-09-09T06:31:34;13.43;;;2.72;;
32906;SDS011;19259;51.590;5.320;2022-09-09T06:34:06;11.33;;;2.45;;
32906;SDS011;19259;51.590;5.320;2022-09-09T06:36:36;8.43;;;2.67;;
32906;SDS011;19259;51.590;5.320;2022-09-09T06:39:05;9.15;;;2.08;;
32906;SDS011;19259;51.590;5.320;2022-09-09T06:41:35;9.43;;;2.95;;
32906;SDS011;19259;51.590;5.320;2022-09-09T06:44:04;7.45;;;2.35;;
32906;SDS011;19259;51.590;5.320;2022-09-09T06:46:31;11.05;;;3.10;;
32906;SDS011;19259;51.590;5.320;2022-09-09T06:49:01;12.68;;;3.00;;
32906;SDS011;19259;51.590;5.320;2022-09-09T06:51:30;16.40;;;3.95;;
32906;SDS011;19259;51.590;5.320;2022-09-09T06:53:59;10.70;;;2.70;;
32906;SDS011;19259;51.590;5.320;2022-09-09T06:56:29;10.30;;;2.70;;
32906;SDS011;19259;51.590;5.320;2022-09-09T06:58:59;8.13;;;2.45;;
32906;SDS011;19259;51.590;5.320;2022-09-09T07:01:32;12.47;;;2.50;;
32906;SDS011;19259;51.590;5.320;2022-09-09T07:04:03;7.63;;;2.67;;
32906;SDS011;19259;51.590;5.320;2022-09-09T07:06:39;10.13;;;2.70;;
32906;SDS011;19259;51.590;5.320;2022-09-09T07:09:04;11.75;;;2.75;;
32906;SDS011;19259;51.590;5.320;2022-09-09T07:11:36;12.35;;;2.77;;
32906;SDS011;19259;51.590;5.320;2022-09-09T07:14:10;10.23;;;2.70;;
32906;SDS011;19259;51.590;5.320;2022-09-09T07:16:41;13.90;;;2.72;;
32906;SDS011;19259;51.590;5.320;2022-09-09T07:19:10;7.87;;;2.42;;
32906;SDS011;19259;51.590;5.320;2022-09-09T07:21:45;7.62;;;2.95;;
32906;SDS011;19259;51.590;5.320;2022-09-09T07:24:09;8.63;;;2.45;;
32906;SDS011;19259;51.590;5.320;2022-09-09T07:26:38;13.22;;;2.72;;
32906;SDS011;19259;51.590;5.320;2022-09-09T07:29:06;14.25;;;3.17;;
32906;SDS011;19259;51.590;5.320;2022-09-09T07:31:35;10.65;;;2.58;;
32906;SDS011;19259;51.590;5.320;2022-09-09T07:34:05;14.38;;;3.00;;
32906;SDS011;19259;51.590;5.320;2022-09-09T07:36:34;10.08;;;2.70;;
32906;SDS011;19259;51.590;5.320;2022-09-09T07:39:07;10.70;;;2.65;;
32906;SDS011;19259;51.590;5.320;2022-09-09T07:41:38;12.07;;;2.85;;
32906;SDS011;19259;51.590;5.320;2022-09-09T07:44:08;9.25;;;2.58;;
32906;SDS011;19259;51.590;5.320;2022-09-09T07:46:37;11.48;;;2.47;;
32906;SDS011;19259;51.590;5.320;2022-09-09T07:49:05;11.93;;;2.75;;
32906;SDS011;19259;51.590;5.320;2022-09-09T07:51:36;6.85;;;2.75;;
32906;SDS011;19259;51.590;5.320;2022-09-09T07:54:05;15.53;;;2.62;;
32906;SDS011;19259;51.590;5.320;2022-09-09T07:56:35;13.05;;;2.65;;
32906;SDS011;19259;51.590;5.320;2022-09-09T07:59:03;10.30;;;2.45;;
32906;SDS011;19259;51.590;5.320;2022-09-09T08:01:33;10.90;;;1.92;;
32906;SDS011;19259;51.590;5.320;2022-09-09T08:04:14;9.38;;;2.30;;
32906;SDS011;19259;51.590;5.320;2022-09-09T08:06:47;9.80;;;2.12;;
32906;SDS011;19259;51.590;5.320;2022-09-09T08:09:18;9.65;;;2.75;;
32906;SDS011;19259;51.590;5.320;2022-09-09T08:11:47;8.10;;;2.27;;
32906;SDS011;19259;51.590;5.320;2022-09-09T08:14:15;10.93;;;2.85;;
32906;SDS011;19259;51.590;5.320;2022-09-09T08:16:44;10.75;;;2.30;;
32906;SDS011;19259;51.590;5.320;2022-09-09T08:19:13;5.83;;;2.00;;
32906;SDS011;19259;51.590;5.320;2022-09-09T08:21:42;7.65;;;2.10;;
32906;SDS011;19259;51.590;5.320;2022-09-09T08:24:14;6.87;;;1.82;;
32906;SDS011;19259;51.590;5.320;2022-09-09T08:26:43;11.33;;;3.00;;
32906;SDS011;19259;51.590;5.320;2022-09-09T08:29:13;9.13;;;2.37;;
32906;SDS011;19259;51.590;5.320;2022-09-09T08:31:45;7.78;;;2.02;;
32906;SDS011;19259;51.590;5.320;2022-09-09T08:34:18;8.03;;;1.80;;
32906;SDS011;19259;51.590;5.320;2022-09-09T08:36:47;13.03;;;2.40;;
32906;SDS011;19259;51.590;5.320;2022-09-09T08:39:18;5.42;;;2.02;;
32906;SDS011;19259;51.590;5.320;2022-09-09T08:50:15;11.63;;;3.15;;
32906;SDS011;19259;51.590;5.320;2022-09-09T08:52:49;15.17;;;2.53;;
32906;SDS011;19259;51.590;5.320;2022-09-09T08:55:41;8.45;;;2.40;;
32906;SDS011;19259;51.590;5.320;2022-09-09T08:58:17;6.25;;;2.10;;
32906;SDS011;19259;51.590;5.320;2022-09-09T09:00:49;6.47;;;1.98;;
32906;SDS011;19259;51.590;5.320;2022-09-09T09:06:15;9.30;;;2.22;;
32906;SDS011;19259;51.590;5.320;2022-09-09T09:09:07;9.55;;;1.90;;
32906;SDS011;19259;51.590;5.320;2022-09-09T09:12:00;12.28;;;2.40;;
32906;SDS011;19259;51.590;5.320;2022-09-09T09:14:34;11.20;;;2.00;;
32906;SDS011;19259;51.590;5.320;2022-09-09T09:17:03;8.63;;;2.10;;
32906;SDS011;19259;51.590;5.320;2022-09-09T09:19:39;8.00;;;2.72;;
32906;SDS011;19259;51.590;5.320;2022-09-09T09:22:17;7.10;;;2.02;;
32906;SDS011;19259;51.590;5.320;2022-09-09T09:27:31;9.05;;;2.80;;
32906;SDS011;19259;51.590;5.320;2022-09-09T09:30:02;14.43;;;2.35;;
32906;SDS011;19259;51.590;5.320;2022-09-09T09:32:33;7.75;;;2.05;;
32906;SDS011;19259;51.590;5.320;2022-09-09T09:35:02;9.25;;;2.40;;
32906;SDS011;19259;51.590;5.320;2022-09-09T09:37:32;5.90;;;1.98;;
32906;SDS011;19259;51.590;5.320;2022-09-09T09:40:14;7.78;;;2.22;;
32906;SDS011;19259;51.590;5.320;2022-09-09T09:43:04;4.80;;;1.90;;
32906;SDS011;19259;51.590;5.320;2022-09-09T09:48:04;10.88;;;2.85;;
32906;SDS011;19259;51.590;5.320;2022-09-09T09:50:33;7.55;;;2.00;;
32906;SDS011;19259;51.590;5.320;2022-09-09T09:53:05;6.53;;;2.17;;
32906;SDS011;19259;51.590;5.320;2022-09-09T09:55:35;8.68;;;2.92;;
32906;SDS011;19259;51.590;5.320;2022-09-09T09:58:06;10.85;;;2.47;;
32906;SDS011;19259;51.590;5.320;2022-09-09T10:00:35;10.93;;;2.40;;
32906;SDS011;19259;51.590;5.320;2022-09-09T10:03:13;8.38;;;2.02;;
32906;SDS011;19259;51.590;5.320;2022-09-09T10:05:52;14.18;;;2.72;;
32906;SDS011;19259;51.590;5.320;2022-09-09T10:08:23;7.67;;;2.30;;
32906;SDS011;19259;51.590;5.320;2022-09-09T10:13:50;8.58;;;3.22;;
32906;SDS011;19259;51.590;5.320;2022-09-09T10:16:54;15.32;;;3.22;;
32906;SDS011;19259;51.590;5.320;2022-09-09T10:19:30;8.20;;;2.55;;
32906;SDS011;19259;51.590;5.320;2022-09-09T10:22:25;17.48;;;3.22;;
32906;SDS011;19259;51.590;5.320;2022-09-09T10:25:02;12.88;;;3.62;;
32906;SDS011;19259;51.590;5.320;2022-09-09T10:30:20;12.35;;;3.17;;
32906;SDS011;19259;51.590;5.320;2022-09-09T10:32:59;6.40;;;2.62;;
32906;SDS011;19259;51.590;5.320;2022-09-09T10:38:05;15.72;;;3.70;;
32906;SDS011;19259;51.590;5.320;2022-09-09T10:40:58;13.58;;;2.85;;
32906;SDS011;19259;51.590;5.320;2022-09-09T10:43:30;10.75;;;2.85;;
32906;SDS011;19259;51.590;5.320;2022-09-09T10:48:50;7.55;;;2.60;;
32906;SDS011;19259;51.590;5.320;2022-09-09T10:51:36;17.02;;;3.15;;
32906;SDS011;19259;51.590;5.320;2022-09-09T10:56:53;7.55;;;2.70;;
32906;SDS011;19259;51.590;5.320;2022-09-09T10:59:26;10.75;;;2.90;;
32906;SDS011;19259;51.590;5.320;2022-09-09T11:04:48;8.63;;;2.40;;
32906;SDS011;19259;51.590;5.320;2022-09-09T11:07:23;9.45;;;2.27;;
32906;SDS011;19259;51.590;5.320;2022-09-09T11:09:46;9.95;;;2.70;;
32906;SDS011;19259;51.590;5.320;2022-09-09T11:12:15;10.40;;;2.85;;
32906;SDS011;19259;51.590;5.320;2022-09-09T11:14:48;9.30;;;2.55;;
32906;SDS011;19259;51.590;5.320;2022-09-09T11:17:42;7.78;;;2.50;;
32906;SDS011;19259;51.590;5.320;2022-09-09T11:20:02;6.92;;;2.55;;
32906;SDS011;19259;51.590;5.320;2022-09-09T11:22:36;16.02;;;2.60;;
32906;SDS011;19259;51.590;5.320;2022-09-09T11:25:16;9.33;;;2.50;;
32906;SDS011;19259;51.590;5.320;2022-09-09T11:33:33;7.17;;;2.95;;
32906;SDS011;19259;51.590;5.320;2022-09-09T11:42:07;9.90;;;2.75;;
32906;SDS011;19259;51.590;5.320;2022-09-09T11:44:42;8.08;;;2.50;;
32906;SDS011;19259;51.590;5.320;2022-09-09T11:47:21;7.97;;;2.25;;
32906;SDS011;19259;51.590;5.320;2022-09-09T11:49:48;9.23;;;2.85;;
32906;SDS011;19259;51.590;5.320;2022-09-09T11:52:25;9.30;;;2.33;;
32906;SDS011;19259;51.590;5.320;2022-09-09T11:55:09;9.95;;;3.33;;
32906;SDS011;19259;51.590;5.320;2022-09-09T11:57:39;10.85;;;3.12;;
32906;SDS011;19259;51.590;5.320;2022-09-09T12:00:27;4.72;;;2.17;;
32906;SDS011;19259;51.590;5.320;2022-09-09T12:02:37;10.25;;;2.52;;
32906;SDS011;19259;51.590;5.320;2022-09-09T12:05:08;9.38;;;2.55;;
32906;SDS011;19259;51.590;5.320;2022-09-09T12:07:52;13.28;;;3.30;;
32906;SDS011;19259;51.590;5.320;2022-09-09T12:10:26;7.30;;;2.58;;
32906;SDS011;19259;51.590;5.320;2022-09-09T12:13:15;6.45;;;2.37;;
32906;SDS011;19259;51.590;5.320;2022-09-09T12:15:49;6.92;;;2.42;;
32906;SDS011;19259;51.590;5.320;2022-09-09T12:18:34;12.28;;;2.55;;
32906;SDS011;19259;51.590;5.320;2022-09-09T12:23:55;5.87;;;2.40;;
32906;SDS011;19259;51.590;5.320;2022-09-09T12:26:49;9.85;;;2.87;;
32906;SDS011;19259;51.590;5.320;2022-09-09T12:29:25;10.70;;;2.67;;
32906;SDS011;19259;51.590;5.320;2022-09-09T12:32:11;7.08;;;2.58;;
32906;SDS011;19259;51.590;5.320;2022-09-09T12:34:46;6.62;;;2.25;;
32906;SDS011;19259;51.590;5.320;2022-09-09T12:40:18;6.70;;;2.55;;
32906;SDS011;19259;51.590;5.320;2022-09-09T12:42:46;9.35;;;2.67;;
32906;SDS011;19259;51.590;5.320;2022-09-09T12:45:19;8.03;;;2.83;;
32906;SDS011;19259;51.590;5.320;2022-09-09T12:50:27;11.38;;;3.08;;
32906;SDS011;19259;51.590;5.320;2022-09-09T12:53:06;5.22;;;2.35;;
32906;SDS011;19259;51.590;5.320;2022-09-09T12:55:31;7.22;;;2.80;;
32906;SDS011;19259;51.590;5.320;2022-09-09T12:58:00;10.03;;;2.17;;
32906;SDS011;19259;51.590;5.320;2022-09-09T13:00:31;9.35;;;2.30;;
32906;SDS011;19259;51.590;5.320;2022-09-09T13:03:01;8.20;;;2.17;;
32906;SDS011;19259;51.590;5.320;2022-09-09T13:05:35;7.85;;;2.30;;
32906;SDS011;19259;51.590;5.320;2022-09-09T13:08:14;5.45;;;1.67;;
32906;SDS011;19259;51.590;5.320;2022-09-09T13:10:46;4.72;;;1.90;;
32906;SDS011;19259;51.590;5.320;2022-09-09T13:13:20;7.35;;;2.17;;
32906;SDS011;19259;51.590;5.320;2022-09-09T13:15:56;7.60;;;2.35;;
32906;SDS011;19259;51.590;5.320;2022-09-09T13:18:34;7.53;;;2.20;;
32906;SDS011;19259;51.590;5.320;2022-09-09T13:20:59;12.10;;;2.22;;
32906;SDS011;19259;51.590;5.320;2022-09-09T13:23:32;8.20;;;2.40;;
32906;SDS011;19259;51.590;5.320;2022-09-09T13:26:03;6.23;;;2.03;;
32906;SDS011;19259;51.590;5.320;2022-09-09T13:28:33;8.15;;;2.62;;
32906;SDS011;19259;51.590;5.320;2022-09-09T13:31:03;6.72;;;2.20;;
32906;SDS011;19259;51.590;5.320;2022-09-09T13:33:34;8.38;;;2.20;;
32906;SDS011;19259;51.590;5.320;2022-09-09T13:36:04;5.35;;;1.95;;
32906;SDS011;19259;51.590;5.320;2022-09-09T13:38:40;8.20;;;2.55;;
32906;SDS011;19259;51.590;5.320;2022-09-09T13:41:32;5.30;;;1.90;;
32906;SDS011;19259;51.590;5.320;2022-09-09T13:43:56;7.22;;;2.30;;
32906;SDS011;19259;51.590;5.320;2022-09-09T13:46:34;6.37;;;2.08;;
32906;SDS011;19259;51.590;5.320;2022-09-09T13:51:43;6.33;;;1.70;;
32906;SDS011;19259;51.590;5.320;2022-09-09T13:54:17;7.90;;;1.77;;
32906;SDS011;19259;51.590;5.320;2022-09-09T13:56:46;8.43;;;2.00;;
32906;SDS011;19259;51.590;5.320;2022-09-09T13:59:16;6.85;;;2.20;;
32906;SDS011;19259;51.590;5.320;2022-09-09T14:01:47;7.72;;;2.05;;
32906;SDS011;19259;51.590;5.320;2022-09-09T14:04:18;7.60;;;2.27;;
32906;SDS011;19259;51.590;5.320;2022-09-09T14:06:49;11.08;;;2.62;;
32906;SDS011;19259;51.590;5.320;2022-09-09T14:09:17;6.55;;;2.00;;
32906;SDS011;19259;51.590;5.320;2022-09-09T14:11:45;6.75;;;2.35;;
32906;SDS011;19259;51.590;5.320;2022-09-09T14:14:13;4.37;;;1.40;;
32906;SDS011;19259;51.590;5.320;2022-09-09T14:16:43;7.20;;;2.05;;
32906;SDS011;19259;51.590;5.320;2022-09-09T14:19:10;6.17;;;2.42;;
32906;SDS011;19259;51.590;5.320;2022-09-09T14:21:37;5.10;;;1.85;;
32906;SDS011;19259;51.590;5.320;2022-09-09T14:24:05;5.75;;;1.77;;
32906;SDS011;19259;51.590;5.320;2022-09-09T14:26:32;3.52;;;1.60;;
32906;SDS011;19259;51.590;5.320;2022-09-09T14:29:00;10.35;;;2.15;;
32906;SDS011;19259;51.590;5.320;2022-09-09T14:31:27;3.40;;;1.30;;
32906;SDS011;19259;51.590;5.320;2022-09-09T14:33:58;7.87;;;1.60;;
32906;SDS011;19259;51.590;5.320;2022-09-09T14:36:26;6.25;;;1.67;;
32906;SDS011;19259;51.590;5.320;2022-09-09T14:38:53;5.10;;;1.42;;
32906;SDS011;19259;51.590;5.320;2022-09-09T14:41:20;3.15;;;1.30;;
32906;SDS011;19259;51.590;5.320;2022-09-09T14:43:48;5.35;;;1.40;;
32906;SDS011;19259;51.590;5.320;2022-09-09T14:46:18;4.62;;;1.20;;
32906;SDS011;19259;51.590;5.320;2022-09-09T14:48:46;6.67;;;1.62;;
32906;SDS011;19259;51.590;5.320;2022-09-09T14:51:17;4.47;;;1.60;;
32906;SDS011;19259;51.590;5.320;2022-09-09T14:53:48;3.58;;;1.90;;
32906;SDS011;19259;51.590;5.320;2022-09-09T14:56:19;3.05;;;1.50;;
32906;SDS011;19259;51.590;5.320;2022-09-09T14:58:50;5.85;;;1.65;;
32906;SDS011;19259;51.590;5.320;2022-09-09T15:01:19;6.20;;;2.08;;
32906;SDS011;19259;51.590;5.320;2022-09-09T15:03:51;9.18;;;1.80;;
32906;SDS011;19259;51.590;5.320;2022-09-09T15:06:18;4.65;;;2.02;;
32906;SDS011;19259;51.590;5.320;2022-09-09T15:08:49;6.28;;;2.15;;
32906;SDS011;19259;51.590;5.320;2022-09-09T15:11:17;5.60;;;1.98;;
32906;SDS011;19259;51.590;5.320;2022-09-09T15:13:46;9.55;;;2.15;;
32906;SDS011;19259;51.590;5.320;2022-09-09T15:16:19;5.25;;;2.00;;
32906;SDS011;19259;51.590;5.320;2022-09-09T15:18:50;4.30;;;1.42;;
32906;SDS011;19259;51.590;5.320;2022-09-09T15:21:19;3.30;;;1.87;;
32906;SDS011;19259;51.590;5.320;2022-09-09T15:23:48;3.85;;;1.85;;
32906;SDS011;19259;51.590;5.320;2022-09-09T15:26:17;6.50;;;1.60;;
32906;SDS011;19259;51.590;5.320;2022-09-09T15:28:46;7.35;;;2.10;;
32906;SDS011;19259;51.590;5.320;2022-09-09T15:31:24;3.52;;;2.15;;
32906;SDS011;19259;51.590;5.320;2022-09-09T15:33:49;5.80;;;1.93;;
32906;SDS011;19259;51.590;5.320;2022-09-09T15:36:23;3.35;;;1.22;;
32906;SDS011;19259;51.590;5.320;2022-09-09T15:38:52;5.58;;;2.00;;
32906;SDS011;19259;51.590;5.320;2022-09-09T15:41:20;3.17;;;1.50;;
32906;SDS011;19259;51.590;5.320;2022-09-09T15:43:49;2.52;;;1.40;;
32906;SDS011;19259;51.590;5.320;2022-09-09T15:46:29;3.20;;;1.57;;
32906;SDS011;19259;51.590;5.320;2022-09-09T15:49:04;7.37;;;1.77;;
32906;SDS011;19259;51.590;5.320;2022-09-09T15:51:36;3.75;;;1.62;;
32906;SDS011;19259;51.590;5.320;2022-09-09T15:54:05;4.03;;;1.55;;
32906;SDS011;19259;51.590;5.320;2022-09-09T15:56:33;3.85;;;1.60;;
32906;SDS011;19259;51.590;5.320;2022-09-09T15:59:01;5.30;;;2.17;;
32906;SDS011;19259;51.590;5.320;2022-09-09T16:01:29;5.22;;;2.35;;
32906;SDS011;19259;51.590;5.320;2022-09-09T16:03:58;3.70;;;1.98;;
32906;SDS011;19259;51.590;5.320;2022-09-09T16:06:26;5.17;;;1.95;;
32906;SDS011;19259;51.590;5.320;2022-09-09T16:08:56;3.08;;;2.00;;
32906;SDS011;19259;51.590;5.320;2022-09-09T16:11:40;7.53;;;2.60;;
32906;SDS011;19259;51.590;5.320;2022-09-09T16:13:56;7.03;;;2.22;;
32906;SDS011;19259;51.590;5.320;2022-09-09T16:16:27;4.65;;;1.92;;
32906;SDS011;19259;51.590;5.320;2022-09-09T16:18:59;6.37;;;2.17;;
32906;SDS011;19259;51.590;5.320;2022-09-09T16:21:29;4.45;;;2.22;;
32906;SDS011;19259;51.590;5.320;2022-09-09T16:24:00;5.22;;;2.77;;
32906;SDS011;19259;51.590;5.320;2022-09-09T16:26:30;7.15;;;2.58;;
32906;SDS011;19259;51.590;5.320;2022-09-09T16:28:59;4.65;;;2.58;;
32906;SDS011;19259;51.590;5.320;2022-09-09T16:31:28;3.90;;;2.52;;
32906;SDS011;19259;51.590;5.320;2022-09-09T16:33:57;5.33;;;2.80;;
32906;SDS011;19259;51.590;5.320;2022-09-09T16:36:27;4.50;;;2.70;;
32906;SDS011;19259;51.590;5.320;2022-09-09T16:41:28;6.00;;;3.30;;
32906;SDS011;19259;51.590;5.320;2022-09-09T16:43:57;5.70;;;3.33;;
32906;SDS011;19259;51.590;5.320;2022-09-09T16:46:26;8.90;;;3.70;;
32906;SDS011;19259;51.590;5.320;2022-09-09T16:48:55;5.97;;;3.83;;
32906;SDS011;19259;51.590;5.320;2022-09-09T16:51:25;8.80;;;3.83;;
32906;SDS011;19259;51.590;5.320;2022-09-09T16:53:58;8.58;;;4.72;;
32906;SDS011;19259;51.590;5.320;2022-09-09T16:56:28;9.03;;;4.20;;
32906;SDS011;19259;51.590;5.320;2022-09-09T16:58:59;7.53;;;4.22;;